Time;durP1;ratioP1;P1;durP2;ratioP2;P2;SDS_P1;SDS_P2;PMS_P1;PMS_P2;Temp;Humidity;BMP_temperature;BMP_pressure;BME280_temperature;BME280_humidity;BME280_pressure;Samples;Min_cycle;Max_cycle;Signal;HPM_P1;HPM_P2
2023/03/03 00:01:59;;;;;;;21.77;14.02;;;7.10;99.90;;;;;;5113719;28;20023;-39
2023/03/03 00:04:24;;;;;;;21.35;12.68;;;7.20;99.90;;;;;;5113561;28;20024;-42
2023/03/03 00:06:50;;;;;;;23.40;13.10;;;7.40;99.90;;;;;;5113770;28;20393;-39
2023/03/03 00:09:16;;;;;;;24.02;12.77;;;7.70;99.90;;;;;;5114219;28;20020;-43
2023/03/03 00:11:41;;;;;;;24.73;13.43;;;7.70;99.90;;;;;;5113740;28;20077;-39
2023/03/03 00:14:27;;;;;;;20.65;12.85;;;7.70;99.90;;;;;;5113633;28;20031;-39
2023/03/03 00:16:54;;;;;;;22.38;12.93;;;7.60;99.90;;;;;;5113602;28;20085;-40
2023/03/03 00:19:20;;;;;;;24.38;13.85;;;7.50;99.90;;;;;;5113615;28;20055;-42
2023/03/03 00:21:48;;;;;;;23.13;13.60;;;7.40;99.90;;;;;;5113318;28;20055;-38
2023/03/03 00:24:19;;;;;;;23.30;13.50;;;7.40;99.90;;;;;;5113479;28;20030;-41
2023/03/03 00:26:49;;;;;;;24.90;14.20;;;7.30;99.90;;;;;;5113089;28;20016;-42
2023/03/03 00:29:35;;;;;;;20.40;12.98;;;7.30;99.90;;;;;;5113695;28;20501;-41
2023/03/03 00:32:21;;;;;;;21.13;13.32;;;7.20;99.90;;;;;;5113636;28;20052;-42
2023/03/03 00:34:49;;;;;;;22.85;13.20;;;7.20;99.90;;;;;;5113266;28;20031;-38
2023/03/03 00:37:41;;;;;;;23.65;13.23;;;7.10;99.90;;;;;;5112914;28;20028;-39
2023/03/03 00:40:20;;;;;;;21.83;13.68;;;7.10;99.90;;;;;;5110941;28;20038;-38
2023/03/03 00:42:50;;;;;;;23.05;13.73;;;7.10;99.90;;;;;;5112986;28;20024;-44
2023/03/03 00:45:28;;;;;;;23.98;13.80;;;7.10;99.90;;;;;;5113240;28;20065;-40
2023/03/03 00:47:55;;;;;;;24.67;13.15;;;7.10;99.90;;;;;;5112650;28;20393;-40
2023/03/03 00:50:32;;;;;;;19.45;12.38;;;7.10;99.90;;;;;;5112860;28;20020;-44
2023/03/03 00:53:10;;;;;;;20.88;13.35;;;7.10;99.90;;;;;;5112883;28;20031;-42
2023/03/03 00:55:36;;;;;;;20.35;13.07;;;7.10;99.90;;;;;;5112669;28;20089;-40
2023/03/03 00:58:02;;;;;;;23.48;13.70;;;7.10;99.90;;;;;;5112523;28;20091;-44
2023/03/03 01:00:27;;;;;;;23.65;14.27;;;7.10;99.90;;;;;;5112861;28;20035;-41
2023/03/03 01:02:53;;;;;;;21.65;13.07;;;7.10;99.90;;;;;;5113372;28;20032;-43
2023/03/03 01:05:19;;;;;;;21.00;12.40;;;7.20;99.90;;;;;;5113029;28;20389;-41
2023/03/03 01:07:45;;;;;;;20.25;12.43;;;7.50;99.90;;;;;;5112280;28;20023;-40
2023/03/03 01:10:11;;;;;;;22.02;12.95;;;7.70;99.90;;;;;;5112623;27;20031;-40
2023/03/03 01:12:37;;;;;;;23.45;14.05;;;7.70;99.90;;;;;;5112430;28;20385;-38
2023/03/03 01:15:08;;;;;;;24.35;14.43;;;7.60;99.90;;;;;;5112088;28;20244;-38
2023/03/03 01:17:34;;;;;;;20.48;13.55;;;7.50;99.90;;;;;;5113963;28;20043;-38
2023/03/03 01:20:01;;;;;;;22.38;13.52;;;7.40;99.90;;;;;;5112433;27;20065;-40
2023/03/03 01:22:27;;;;;;;21.30;13.23;;;7.40;99.90;;;;;;5112055;27;20020;-40
2023/03/03 01:24:52;;;;;;;21.10;12.65;;;7.30;99.90;;;;;;5112282;28;20384;-41
2023/03/03 01:27:18;;;;;;;21.42;13.25;;;7.30;99.90;;;;;;5111985;28;20064;-40
2023/03/03 01:29:44;;;;;;;22.20;13.18;;;7.20;99.90;;;;;;5112322;28;20075;-40
2023/03/03 01:32:09;;;;;;;24.73;14.00;;;7.20;99.90;;;;;;5112639;28;20047;-39
2023/03/03 01:34:35;;;;;;;22.55;13.48;;;7.10;99.90;;;;;;5112125;28;20024;-40
2023/03/03 01:37:00;;;;;;;24.23;13.65;;;7.10;99.90;;;;;;5111596;28;20465;-40
2023/03/03 01:39:26;;;;;;;20.58;13.52;;;7.00;99.90;;;;;;5113284;28;20027;-39
2023/03/03 01:41:52;;;;;;;22.50;13.63;;;7.00;99.90;;;;;;5112270;28;20032;-39
2023/03/03 01:44:18;;;;;;;19.70;13.10;;;7.00;99.90;;;;;;5111946;28;20047;-41
2023/03/03 01:46:55;;;;;;;23.70;13.80;;;7.00;99.90;;;;;;5111663;28;20020;-38
2023/03/03 01:49:33;;;;;;;21.50;13.32;;;7.00;99.90;;;;;;5111821;28;20028;-38
2023/03/03 01:52:02;;;;;;;21.13;13.43;;;7.00;99.90;;;;;;5112391;28;20106;-42
2023/03/03 01:54:37;;;;;;;22.90;13.98;;;7.00;99.90;;;;;;5112362;28;20035;-39
2023/03/03 01:57:10;;;;;;;22.05;13.52;;;7.00;99.90;;;;;;5111525;28;20024;-41
2023/03/03 01:59:40;;;;;;;20.45;12.77;;;7.00;99.90;;;;;;5111588;28;20034;-38
2023/03/03 02:02:07;;;;;;;21.40;13.98;;;7.00;99.90;;;;;;5112202;28;20030;-38
2023/03/03 02:04:34;;;;;;;20.77;13.68;;;7.00;99.90;;;;;;5111017;28;20294;-40
2023/03/03 02:07:05;;;;;;;20.52;13.30;;;7.40;99.90;;;;;;5111657;28;20015;-41
2023/03/03 02:09:45;;;;;;;22.13;13.30;;;7.60;99.90;;;;;;5111714;28;20019;-41
2023/03/03 02:12:14;;;;;;;23.48;13.30;;;7.60;99.90;;;;;;5111888;28;20024;-38
2023/03/03 02:14:39;;;;;;;23.00;14.65;;;7.50;99.90;;;;;;5111633;28;20093;-39
2023/03/03 02:17:05;;;;;;;24.88;13.82;;;7.40;99.90;;;;;;5111432;28;20419;-38
2023/03/03 02:19:40;;;;;;;22.83;12.63;;;7.30;99.90;;;;;;5111904;28;20024;-40
2023/03/03 02:22:06;;;;;;;20.75;12.95;;;7.30;99.90;;;;;;5111394;28;20024;-38
2023/03/03 02:24:59;;;;;;;23.30;13.63;;;7.20;99.90;;;;;;5111440;28;20089;-40
2023/03/03 02:27:28;;;;;;;22.77;13.32;;;7.10;99.90;;;;;;5112548;28;20073;-43
2023/03/03 02:29:54;;;;;;;22.58;13.85;;;7.10;99.90;;;;;;5115820;28;20396;-40
2023/03/03 02:32:19;;;;;;;25.42;13.93;;;7.10;99.90;;;;;;5115854;28;20031;-38
2023/03/03 02:34:48;;;;;;;22.27;13.40;;;7.00;99.90;;;;;;5116133;28;20130;-38
2023/03/03 02:37:14;;;;;;;20.38;13.02;;;7.00;99.90;;;;;;5114749;28;20028;-42
2023/03/03 02:39:40;;;;;;;24.27;14.27;;;6.90;99.90;;;;;;5115430;28;20035;-38
2023/03/03 02:42:26;;;;;;;20.90;13.43;;;6.90;99.90;;;;;;5115319;28;20032;-40
2023/03/03 02:44:52;;;;;;;23.20;13.85;;;6.90;99.90;;;;;;5115486;28;20380;-39
2023/03/03 02:47:17;;;;;;;21.55;13.57;;;6.90;99.90;;;;;;5114998;28;20024;-38
2023/03/03 02:49:44;;;;;;;19.80;12.85;;;6.90;99.90;;;;;;5113862;28;20397;-39
2023/03/03 02:52:10;;;;;;;22.50;13.63;;;6.90;99.90;;;;;;5115237;28;20423;-39
2023/03/03 02:54:37;;;;;;;19.83;13.05;;;6.90;99.90;;;;;;5115152;28;20084;-42
2023/03/03 02:57:04;;;;;;;20.17;12.95;;;6.90;99.90;;;;;;5115281;28;20414;-41
2023/03/03 02:59:29;;;;;;;22.80;13.48;;;6.90;99.90;;;;;;5114851;28;20032;-41
2023/03/03 03:01:56;;;;;;;20.55;13.15;;;6.90;99.90;;;;;;5114798;28;20028;-39
2023/03/03 03:04:24;;;;;;;23.92;13.27;;;7.00;99.90;;;;;;5114975;28;20098;-38
2023/03/03 03:06:50;;;;;;;22.20;13.10;;;7.20;99.90;;;;;;5114638;27;20035;-40
2023/03/03 03:09:17;;;;;;;24.65;13.07;;;7.50;99.90;;;;;;5114874;28;20152;-40
2023/03/03 03:11:42;;;;;;;20.15;13.27;;;7.60;99.90;;;;;;5114787;28;20473;-38
2023/03/03 03:14:10;;;;;;;23.08;14.00;;;7.60;99.90;;;;;;5115820;28;20380;-40
2023/03/03 03:16:36;;;;;;;22.98;13.95;;;7.50;99.90;;;;;;5114860;28;20028;-40
2023/03/03 03:19:03;;;;;;;26.08;14.93;;;7.40;99.90;;;;;;5114615;28;20028;-42
2023/03/03 03:21:29;;;;;;;21.98;13.43;;;7.30;99.90;;;;;;5114479;28;20028;-38
2023/03/03 03:23:55;;;;;;;22.23;13.73;;;7.20;99.90;;;;;;5114971;28;20016;-38
2023/03/03 03:26:21;;;;;;;22.42;13.80;;;7.10;99.90;;;;;;5114946;28;20540;-42
2023/03/03 03:28:48;;;;;;;24.55;14.70;;;7.10;99.90;;;;;;5114580;28;20031;-39
2023/03/03 03:31:14;;;;;;;21.98;12.88;;;7.00;99.90;;;;;;5114339;28;20027;-38
2023/03/03 03:33:40;;;;;;;24.10;13.70;;;7.00;99.90;;;;;;5114401;28;20452;-38
2023/03/03 03:36:06;;;;;;;20.63;13.60;;;7.00;99.90;;;;;;5114081;28;20051;-43
2023/03/03 03:38:32;;;;;;;23.33;13.98;;;6.90;99.90;;;;;;5113391;28;20066;-42
2023/03/03 03:40:58;;;;;;;23.30;13.82;;;6.90;99.90;;;;;;5114199;28;20032;-41
2023/03/03 03:43:24;;;;;;;21.30;13.93;;;6.90;99.90;;;;;;5113966;28;20127;-43
2023/03/03 03:45:50;;;;;;;20.20;13.05;;;6.90;99.90;;;;;;5113967;28;20088;-46
2023/03/03 03:48:16;;;;;;;21.15;13.90;;;6.80;99.90;;;;;;5114097;28;20026;-43
2023/03/03 03:50:42;;;;;;;18.70;12.73;;;6.80;99.90;;;;;;5114592;28;20020;-43
2023/03/03 03:53:07;;;;;;;22.67;13.68;;;6.90;99.90;;;;;;5114029;28;20445;-42
2023/03/03 03:55:33;;;;;;;19.42;13.00;;;6.90;99.90;;;;;;5114054;28;20118;-40
2023/03/03 03:57:59;;;;;;;20.38;12.90;;;6.80;99.90;;;;;;5114349;28;20035;-41
2023/03/03 04:00:24;;;;;;;20.48;12.57;;;6.90;99.90;;;;;;5114211;28;20377;-43
2023/03/03 04:02:51;;;;;;;17.58;11.57;;;6.90;99.90;;;;;;5113950;28;20488;-40
2023/03/03 04:05:17;;;;;;;22.05;12.88;;;7.00;99.90;;;;;;5113829;28;20492;-42
2023/03/03 04:07:43;;;;;;;20.02;13.27;;;7.30;99.90;;;;;;5113632;28;20038;-41
2023/03/03 04:10:09;;;;;;;21.77;13.35;;;7.60;99.90;;;;;;5113656;28;20416;-38
2023/03/03 04:12:37;;;;;;;22.63;13.43;;;7.60;99.90;;;;;;5113419;28;20102;-42
2023/03/03 04:15:11;;;;;;;21.05;13.15;;;7.50;99.90;;;;;;5113614;28;20012;-39
2023/03/03 04:17:37;;;;;;;;;;;7.40;99.90;;;;;;5113870;28;20091;-38
2023/03/03 04:20:03;;;;;;;20.90;13.30;;;7.30;99.90;;;;;;5113461;28;19991;-39
2023/03/03 04:22:32;;;;;;;22.20;13.45;;;7.30;99.90;;;;;;5113400;28;20038;-38
2023/03/03 04:24:59;;;;;;;20.63;13.10;;;7.20;99.90;;;;;;5113218;28;20024;-38
2023/03/03 04:27:24;;;;;;;18.23;12.82;;;7.10;99.90;;;;;;5113083;28;20477;-38
2023/03/03 04:29:50;;;;;;;19.98;12.68;;;7.10;99.90;;;;;;5113256;28;20062;-38
2023/03/03 04:32:17;;;;;;;20.45;12.25;;;7.00;99.90;;;;;;5113149;28;20028;-39
2023/03/03 04:34:43;;;;;;;23.73;12.88;;;7.00;99.90;;;;;;5113118;28;20047;-38
2023/03/03 04:37:09;;;;;;;20.48;12.85;;;7.00;99.90;;;;;;5112516;28;20055;-38
2023/03/03 04:39:34;;;;;;;22.23;13.40;;;6.90;99.90;;;;;;5113285;28;20028;-41
2023/03/03 04:42:00;;;;;;;22.60;13.18;;;6.90;99.90;;;;;;5112892;28;20032;-37
2023/03/03 04:44:25;;;;;;;23.90;13.13;;;6.90;99.90;;;;;;5113270;28;20027;-38
2023/03/03 04:46:51;;;;;;;20.17;12.32;;;6.90;99.90;;;;;;5111900;28;20466;-38
2023/03/03 04:49:16;;;;;;;21.27;13.60;;;6.90;99.90;;;;;;5112255;28;20027;-38
2023/03/03 04:51:42;;;;;;;21.25;13.52;;;6.90;99.90;;;;;;5112290;28;20076;-38
2023/03/03 04:54:08;;;;;;;20.15;12.40;;;6.90;99.90;;;;;;5113396;28;20126;-39
2023/03/03 04:56:33;;;;;;;20.48;13.52;;;6.90;99.90;;;;;;5112833;28;20028;-38
2023/03/03 04:58:59;;;;;;;19.77;12.65;;;6.90;99.90;;;;;;5112808;28;20027;-36
2023/03/03 05:01:24;;;;;;;21.17;13.02;;;6.90;99.90;;;;;;5112498;28;20094;-36
2023/03/03 05:03:50;;;;;;;21.52;13.00;;;6.90;99.90;;;;;;5111173;28;20489;-36
2023/03/03 05:06:17;;;;;;;21.73;13.00;;;7.20;99.90;;;;;;5112335;28;20495;-38
2023/03/03 05:08:44;;;;;;;22.35;13.38;;;7.50;99.90;;;;;;5112996;28;20023;-39
2023/03/03 05:11:11;;;;;;;21.17;12.38;;;7.70;99.90;;;;;;5113458;28;20070;-38
2023/03/03 05:13:36;;;;;;;21.45;13.23;;;7.60;99.90;;;;;;5113912;28;20035;-39
2023/03/03 05:16:02;;;;;;;20.08;12.35;;;7.50;99.90;;;;;;5112203;28;20024;-37
2023/03/03 05:18:28;;;;;;;19.52;12.63;;;7.40;99.90;;;;;;5112274;28;20130;-40
2023/03/03 05:20:54;;;;;;;23.17;13.27;;;7.30;99.90;;;;;;5112323;28;20118;-38
2023/03/03 05:23:20;;;;;;;20.40;12.75;;;7.30;99.90;;;;;;5112281;28;20032;-38
2023/03/03 05:25:49;;;;;;;22.50;12.80;;;7.20;99.90;;;;;;5112227;28;20026;-40
2023/03/03 05:28:15;;;;;;;21.05;13.13;;;7.20;99.90;;;;;;5112169;28;20034;-35
2023/03/03 05:30:41;;;;;;;20.75;13.90;;;7.10;99.90;;;;;;5112094;28;20020;-38
2023/03/03 05:33:06;;;;;;;21.08;12.63;;;7.00;99.90;;;;;;5111808;28;20085;-36
2023/03/03 05:35:33;;;;;;;21.83;13.40;;;7.00;99.90;;;;;;5111984;28;20077;-39
2023/03/03 05:37:58;;;;;;;18.92;12.02;;;7.00;99.90;;;;;;5111777;28;20032;-37
2023/03/03 05:40:25;;;;;;;18.88;13.00;;;6.90;99.90;;;;;;5110622;28;20039;-41
2023/03/03 05:42:51;;;;;;;20.65;12.63;;;6.90;99.90;;;;;;5111880;28;20440;-41
2023/03/03 05:45:19;;;;;;;19.23;12.27;;;6.90;99.90;;;;;;5111925;28;20024;-38
2023/03/03 05:47:51;;;;;;;18.98;12.75;;;6.90;99.90;;;;;;5111741;28;20106;-40
2023/03/03 05:50:18;;;;;;;20.05;12.60;;;6.90;99.90;;;;;;5112043;28;20030;-39
2023/03/03 05:52:50;;;;;;;22.15;12.93;;;6.90;99.90;;;;;;5111864;28;20477;-38
2023/03/03 05:55:16;;;;;;;19.13;12.63;;;6.90;99.90;;;;;;5111869;28;20046;-39
2023/03/03 05:57:42;;;;;;;20.42;12.68;;;6.90;99.90;;;;;;5111585;28;20031;-40
2023/03/03 06:00:08;;;;;;;21.13;13.23;;;6.90;99.90;;;;;;5111422;28;20027;-42
2023/03/03 06:02:34;;;;;;;23.10;11.90;;;6.90;99.90;;;;;;5112911;28;20036;-41
2023/03/03 06:05:00;;;;;;;20.48;13.02;;;7.10;99.90;;;;;;5111691;28;20038;-41
2023/03/03 06:07:26;;;;;;;19.98;12.38;;;7.40;99.90;;;;;;5111401;28;20032;-40
2023/03/03 06:09:52;;;;;;;21.05;12.45;;;7.60;99.90;;;;;;5111678;28;20031;-38
2023/03/03 06:12:17;;;;;;;18.55;12.23;;;7.60;99.90;;;;;;5111611;28;20030;-39
2023/03/03 06:14:43;;;;;;;24.52;13.35;;;7.60;99.90;;;;;;5111568;28;20107;-40
2023/03/03 06:17:09;;;;;;;20.95;13.23;;;7.50;99.90;;;;;;5111305;28;20085;-38
2023/03/03 06:19:36;;;;;;;20.50;12.85;;;7.40;99.90;;;;;;5111588;28;20047;-39
2023/03/03 06:22:01;;;;;;;24.10;14.05;;;7.30;99.90;;;;;;5111452;28;20024;-43
2023/03/03 06:24:29;;;;;;;21.17;12.95;;;7.20;99.90;;;;;;5111545;28;20030;-40
2023/03/03 06:26:56;;;;;;;21.85;12.65;;;7.20;99.90;;;;;;5111320;28;20023;-43
2023/03/03 06:29:22;;;;;;;21.77;13.60;;;7.10;99.90;;;;;;5111431;28;20020;-41
2023/03/03 06:31:47;;;;;;;20.45;12.88;;;7.10;99.90;;;;;;5111332;28;20043;-39
2023/03/03 06:34:13;;;;;;;23.85;13.55;;;7.00;99.90;;;;;;5112676;28;20070;-40
2023/03/03 06:36:39;;;;;;;23.20;14.07;;;7.00;99.90;;;;;;5111334;28;20505;-39
2023/03/03 06:39:04;;;;;;;21.38;12.57;;;7.00;99.90;;;;;;5111408;28;20374;-38
2023/03/03 06:41:30;;;;;;;21.85;13.07;;;6.90;99.90;;;;;;5111288;28;20093;-42
2023/03/03 06:43:57;;;;;;;22.17;13.80;;;6.90;99.90;;;;;;5112679;28;20164;-38
2023/03/03 06:46:22;;;;;;;19.63;12.82;;;6.90;99.90;;;;;;5112520;28;20023;-39
2023/03/03 06:48:48;;;;;;;20.83;13.07;;;6.90;99.90;;;;;;5111454;28;20024;-40
2023/03/03 06:51:19;;;;;;;21.60;13.07;;;6.90;99.90;;;;;;5111304;28;20027;-40
2023/03/03 06:53:45;;;;;;;22.98;12.93;;;6.90;99.90;;;;;;5111310;28;20084;-41
2023/03/03 06:56:10;;;;;;;19.05;13.02;;;6.90;99.90;;;;;;5111665;28;20035;-39
2023/03/03 06:58:36;;;;;;;19.10;12.43;;;6.90;99.90;;;;;;5111737;28;20102;-43
2023/03/03 07:01:01;;;;;;;20.83;13.25;;;6.90;99.90;;;;;;5111044;28;20042;-39
2023/03/03 07:03:36;;;;;;;20.63;12.55;;;6.90;99.90;;;;;;5111226;28;20574;-39
2023/03/03 07:06:13;;;;;;;21.83;14.10;;;7.20;99.90;;;;;;5111318;28;20503;-38
2023/03/03 07:08:40;;;;;;;20.52;12.40;;;7.50;99.90;;;;;;5111150;28;20325;-40
2023/03/03 07:11:11;;;;;;;21.90;14.00;;;7.60;99.90;;;;;;5110980;28;20027;-41
2023/03/03 07:13:41;;;;;;;21.60;12.85;;;7.50;99.90;;;;;;5112552;28;20016;-41
2023/03/03 07:16:11;;;;;;;21.27;13.70;;;7.50;99.90;;;;;;5114471;28;20042;-38
2023/03/03 07:18:40;;;;;;;23.25;13.23;;;7.40;99.90;;;;;;5115623;28;20047;-43
2023/03/03 07:21:15;;;;;;;20.55;13.57;;;7.30;99.90;;;;;;5114728;28;20073;-38
2023/03/03 07:23:41;;;;;;;22.52;13.40;;;7.20;99.90;;;;;;5114742;28;20125;-41
2023/03/03 07:26:19;;;;;;;24.20;13.77;;;7.10;99.90;;;;;;5115023;28;20084;-39
2023/03/03 07:28:57;;;;;;;20.60;12.65;;;7.10;99.90;;;;;;5114704;28;20032;-38
2023/03/03 07:31:38;;;;;;;20.67;12.85;;;7.10;99.90;;;;;;5114924;28;20031;-38
2023/03/03 07:34:18;;;;;;;20.88;12.75;;;7.00;99.90;;;;;;5114430;28;20024;-41
2023/03/03 07:36:44;;;;;;;21.17;12.95;;;7.00;99.90;;;;;;5114179;28;20096;-39
2023/03/03 07:39:35;;;;;;;21.40;13.20;;;7.00;99.90;;;;;;5114341;28;20477;-39
2023/03/03 07:42:21;;;;;;;22.85;13.10;;;6.90;99.90;;;;;;5114134;28;20087;-38
2023/03/03 07:44:49;;;;;;;21.55;12.52;;;6.90;99.90;;;;;;5114153;28;20023;-37
2023/03/03 07:47:21;;;;;;;19.98;12.60;;;6.90;99.90;;;;;;5113933;28;20098;-36
2023/03/03 07:49:49;;;;;;;22.17;13.10;;;6.90;99.90;;;;;;5114548;28;20047;-39
2023/03/03 07:52:38;;;;;;;19.17;11.82;;;6.90;99.90;;;;;;5113884;28;20101;-40
2023/03/03 07:55:19;;;;;;;17.23;10.98;;;6.90;99.90;;;;;;5114028;28;20224;-38
2023/03/03 07:57:45;;;;;;;19.95;11.88;;;6.90;99.90;;;;;;5113801;28;20051;-37
2023/03/03 08:00:17;;;;;;;21.67;12.55;;;6.90;99.90;;;;;;5113786;28;20520;-36
2023/03/03 08:03:02;;;;;;;20.90;12.15;;;7.00;99.90;;;;;;5112581;28;20067;-36
2023/03/03 08:05:34;;;;;;;19.92;12.75;;;6.90;99.90;;;;;;5113873;28;20110;-36
2023/03/03 08:08:09;;;;;;;18.52;12.38;;;6.90;99.90;;;;;;5113735;28;20019;-36
2023/03/03 08:10:54;;;;;;;21.63;13.13;;;6.90;99.90;;;;;;5113750;28;20028;-36
2023/03/03 08:13:31;;;;;;;19.85;12.30;;;6.90;99.90;;;;;;5113662;28;20023;-36
2023/03/03 08:16:07;;;;;;;18.98;12.10;;;6.90;99.90;;;;;;5113440;28;20054;-36
2023/03/03 08:18:42;;;;;;;20.45;12.68;;;6.90;99.90;;;;;;5113850;28;20116;-38
2023/03/03 08:21:12;;;;;;;18.83;11.55;;;6.90;99.90;;;;;;5114154;28;20034;-36
2023/03/03 08:23:38;;;;;;;19.40;12.02;;;6.90;99.90;;;;;;5113586;28;20024;-39
2023/03/03 08:26:03;;;;;;;17.63;11.80;;;6.90;99.90;;;;;;5113085;28;20023;-40
2023/03/03 08:28:29;;;;;;;18.83;12.00;;;6.90;99.90;;;;;;5113554;28;20485;-38
2023/03/03 08:30:55;;;;;;;20.20;12.05;;;6.90;99.90;;;;;;5113505;28;20024;-38
2023/03/03 08:33:20;;;;;;;19.00;11.32;;;6.90;99.90;;;;;;5112100;28;20027;-38
2023/03/03 08:35:47;;;;;;;19.50;12.05;;;6.90;99.90;;;;;;5112987;28;20028;-38
2023/03/03 08:38:15;;;;;;;18.10;12.05;;;6.90;99.90;;;;;;5113061;28;20509;-38
2023/03/03 08:40:41;;;;;;;18.40;12.13;;;6.90;99.90;;;;;;5112998;28;20023;-38
2023/03/03 08:43:07;;;;;;;19.23;11.48;;;6.90;99.90;;;;;;5112944;28;20069;-38
2023/03/03 08:45:33;;;;;;;19.65;12.52;;;6.90;99.90;;;;;;5112974;28;20019;-38
2023/03/03 08:48:00;;;;;;;19.00;12.55;;;7.00;99.90;;;;;;5112879;28;20027;-38
2023/03/03 08:50:27;;;;;;;20.13;12.35;;;7.00;99.90;;;;;;5112959;28;20028;-38
2023/03/03 08:52:52;;;;;;;20.60;12.05;;;6.90;99.90;;;;;;5112703;28;20027;-39
2023/03/03 08:55:18;;;;;;;47.17;25.50;;;6.90;99.90;;;;;;5112772;28;20023;-38
2023/03/03 08:57:44;;;;;;;54.80;28.75;;;7.00;99.90;;;;;;5112571;28;20062;-36
2023/03/03 09:00:13;;;;;;;52.75;27.15;;;6.90;99.90;;;;;;5111619;28;20031;-36
2023/03/03 09:02:39;;;;;;;46.38;26.63;;;6.80;99.90;;;;;;5112695;28;20092;-36
2023/03/03 09:05:05;;;;;;;49.95;26.85;;;6.80;99.90;;;;;;5113237;28;20023;-36
2023/03/03 09:07:31;;;;;;;44.42;25.30;;;6.80;99.90;;;;;;5112578;28;20032;-36
2023/03/03 09:09:57;;;;;;;44.28;25.17;;;6.90;99.90;;;;;;5112734;27;20012;-36
2023/03/03 09:12:34;;;;;;;43.97;25.48;;;6.90;99.90;;;;;;5112434;28;20025;-37
2023/03/03 09:15:30;;;;;;;44.03;25.55;;;6.80;99.90;;;;;;5112877;28;20540;-37
2023/03/03 09:18:07;;;;;;;38.65;23.55;;;6.90;99.90;;;;;;5106620;28;20031;-38
2023/03/03 09:20:43;;;;;;;38.85;23.95;;;6.90;99.90;;;;;;5112573;28;20020;-36
2023/03/03 09:23:37;;;;;;;44.13;24.73;;;6.90;99.90;;;;;;5113184;28;20040;-37
2023/03/03 09:26:25;;;;;;;41.47;23.73;;;6.90;99.90;;;;;;5112389;28;20114;-37
2023/03/03 09:28:52;;;;;;;43.08;24.77;;;6.90;99.90;;;;;;5114341;28;20465;-36
2023/03/03 09:31:25;;;;;;;42.58;24.55;;;6.90;99.90;;;;;;5115764;28;20446;-37
2023/03/03 09:33:54;;;;;;;43.60;24.00;;;7.00;99.90;;;;;;5115231;28;20020;-36
2023/03/03 09:36:25;;;;;;;40.17;23.88;;;7.00;99.90;;;;;;5110426;28;20027;-36
2023/03/03 09:38:52;;;;;;;38.67;23.17;;;7.00;99.90;;;;;;5112537;28;20020;-37
2023/03/03 09:41:47;;;;;;;39.60;23.30;;;7.10;99.90;;;;;;5111860;28;20027;-37
2023/03/03 09:44:23;;;;;;;;;;;7.00;99.90;;;;;;5093398;28;20100;-38
2023/03/03 09:47:04;;;;;;;40.78;21.75;;;7.10;99.90;;;;;;5112814;28;19958;-38
2023/03/03 09:49:32;;;;;;;37.97;22.58;;;7.10;99.90;;;;;;5111985;28;20020;-36
2023/03/03 09:52:41;;;;;;;35.65;22.02;;;7.10;99.90;;;;;;5112005;28;20051;-38
2023/03/03 09:55:31;;;;;;;35.33;21.30;;;7.10;99.90;;;;;;5069000;28;20130;-37
2023/03/03 09:58:29;;;;;;;37.70;20.40;;;7.10;99.90;;;;;;5109692;28;20085;-37
2023/03/03 10:01:15;;;;;;;32.22;20.48;;;7.10;99.90;;;;;;5106740;28;20050;-37
2023/03/03 10:04:08;;;;;;;35.97;20.67;;;7.20;99.90;;;;;;5113034;28;20342;-36
2023/03/03 10:06:52;;;;;;;37.03;20.65;;;7.20;99.90;;;;;;5111383;28;20435;-37
2023/03/03 10:09:52;;;;;;;36.92;19.98;;;7.20;99.90;;;;;;5112076;28;20027;-38
2023/03/03 10:12:58;;;;;;;30.75;19.38;;;7.20;99.90;;;;;;5111568;28;20027;-38
2023/03/03 10:15:43;;;;;;;36.90;19.88;;;7.30;99.90;;;;;;5077466;28;20036;-36
2023/03/03 10:18:29;;;;;;;;;;;7.30;99.90;;;;;;5112021;28;20027;-38
2023/03/03 10:20:58;;;;;;;34.53;19.02;;;7.30;99.90;;;;;;5111637;28;19915;-36
2023/03/03 10:23:53;;;;;;;34.03;19.75;;;7.30;99.90;;;;;;5111380;28;20498;-37
2023/03/03 10:26:19;;;;;;;31.17;18.77;;;7.30;99.90;;;;;;5111222;28;20103;-38
2023/03/03 10:29:16;;;;;;;32.05;18.50;;;7.40;99.90;;;;;;5112924;28;20055;-36
2023/03/03 10:32:00;;;;;;;33.42;18.20;;;7.40;99.90;;;;;;5073718;28;20398;-39
2023/03/03 10:35:10;;;;;;;32.33;18.35;;;7.40;99.90;;;;;;5112575;28;20032;-38
2023/03/03 10:37:47;;;;;;;29.85;17.67;;;7.50;99.90;;;;;;5100626;28;20050;-37
2023/03/03 10:40:38;;;;;;;28.70;17.00;;;7.50;99.90;;;;;;5112554;28;20023;-37
2023/03/03 10:43:10;;;;;;;28.70;17.55;;;7.60;99.90;;;;;;5111629;28;20508;-39
2023/03/03 10:46:08;;;;;;;28.48;16.70;;;7.60;99.90;;;;;;5111402;28;20034;-38
2023/03/03 10:48:43;;;;;;;28.98;18.00;;;7.60;99.90;;;;;;5112829;28;20031;-35
2023/03/03 10:51:19;;;;;;;28.73;17.85;;;7.70;99.90;;;;;;5115174;28;20149;-34
2023/03/03 10:54:06;;;;;;;30.33;17.10;;;7.70;99.90;;;;;;5115200;28;20020;-34
2023/03/03 10:56:56;;;;;;;28.50;17.58;;;7.70;99.90;;;;;;5114734;28;20119;-36
2023/03/03 10:59:31;;;;;;;27.15;16.45;;;7.70;99.90;;;;;;5115718;28;20023;-34
2023/03/03 11:02:27;;;;;;;26.05;16.20;;;7.80;99.90;;;;;;5115262;28;20067;-36
2023/03/03 11:05:22;;;;;;;29.58;17.00;;;7.80;99.90;;;;;;5107939;28;20396;-38
2023/03/03 11:08:08;;;;;;;25.55;16.92;;;7.80;99.90;;;;;;5098674;28;20032;-38
2023/03/03 11:10:59;;;;;;;26.92;15.63;;;7.80;99.90;;;;;;5113805;28;20068;-36
2023/03/03 11:13:39;;;;;;;24.63;15.30;;;7.90;99.90;;;;;;5114998;28;20381;-38
2023/03/03 11:16:24;;;;;;;26.83;15.82;;;7.90;99.90;;;;;;5115171;27;20051;-38
2023/03/03 11:18:53;;;;;;;28.63;15.55;;;8.00;99.90;;;;;;5114826;28;20016;-35
2023/03/03 11:21:22;;;;;;;26.65;16.20;;;8.00;99.90;;;;;;5115319;28;20102;-36
2023/03/03 11:24:00;;;;;;;25.38;14.95;;;8.00;99.90;;;;;;5115663;28;20023;-36
2023/03/03 11:26:32;;;;;;;27.08;16.10;;;8.00;99.90;;;;;;5114905;28;20024;-38
2023/03/03 11:29:06;;;;;;;24.58;14.63;;;8.00;99.90;;;;;;5115074;28;20023;-38
2023/03/03 11:31:41;;;;;;;25.67;14.93;;;8.00;99.90;;;;;;5114488;28;20127;-37
2023/03/03 11:34:18;;;;;;;40.22;22.90;;;8.00;99.90;;;;;;5114371;28;20024;-38
2023/03/03 11:36:56;;;;;;;42.47;23.95;;;8.10;99.90;;;;;;5114297;28;20044;-35
2023/03/03 11:39:27;;;;;;;39.78;23.38;;;8.10;99.90;;;;;;5114475;27;20028;-35
2023/03/03 11:42:07;;;;;;;38.35;22.73;;;8.20;99.90;;;;;;5114388;28;20024;-37
2023/03/03 11:44:41;;;;;;;40.40;22.40;;;8.20;99.90;;;;;;5114256;28;20393;-37
2023/03/03 11:47:33;;;;;;;40.33;21.92;;;8.30;99.90;;;;;;5114143;28;20016;-36
2023/03/03 11:50:29;;;;;;;39.10;20.88;;;8.30;99.90;;;;;;5114436;28;20090;-37
2023/03/03 11:53:23;;;;;;;35.75;20.33;;;8.30;99.90;;;;;;5113071;28;20123;-36
2023/03/03 11:55:56;;;;;;;38.75;21.10;;;8.40;99.90;;;;;;5114221;27;20016;-39
2023/03/03 11:58:38;;;;;;;36.47;20.90;;;8.40;99.90;;;;;;5114093;28;20026;-35
2023/03/03 12:01:13;;;;;;;33.15;18.95;;;8.50;99.90;;;;;;5113823;28;20467;-38
2023/03/03 12:03:44;;;;;;;32.47;19.45;;;8.40;99.90;;;;;;5114202;28;20020;-38
2023/03/03 12:06:32;;;;;;;31.58;19.30;;;8.40;99.90;;;;;;5112476;28;20027;-35
2023/03/03 12:09:26;;;;;;;31.88;19.42;;;8.40;99.90;;;;;;5114020;28;20011;-38
2023/03/03 12:11:59;;;;;;;27.92;17.55;;;8.40;99.90;;;;;;5095622;27;20046;-37
2023/03/03 12:14:28;;;;;;;30.30;18.25;;;8.40;99.90;;;;;;5114277;28;20030;-35
2023/03/03 12:17:05;;;;;;;29.23;17.45;;;8.40;99.90;;;;;;5113962;28;20026;-35
2023/03/03 12:19:34;;;;;;;32.05;17.20;;;8.40;99.90;;;;;;5117963;27;20405;-37
2023/03/03 12:22:06;;;;;;;29.50;17.15;;;8.40;99.90;;;;;;5123883;28;20393;-36
2023/03/03 12:25:06;;;;;;;29.42;16.73;;;8.40;99.90;;;;;;5117297;28;20023;-36
2023/03/03 12:27:45;;;;;;;24.13;15.55;;;8.40;99.90;;;;;;5113806;28;20038;-43
2023/03/03 12:30:30;;;;;;;29.48;15.43;;;8.40;99.90;;;;;;5113349;28;20043;-45
2023/03/03 12:33:17;;;;;;;24.38;15.68;;;8.40;99.90;;;;;;5113580;28;20477;-44
2023/03/03 12:36:00;;;;;;;22.77;14.50;;;8.40;99.90;;;;;;5113299;28;20088;-40
2023/03/03 12:38:43;;;;;;;22.23;14.45;;;8.40;99.90;;;;;;5113108;28;20504;-44
2023/03/03 12:41:22;;;;;;;24.85;14.90;;;8.40;99.90;;;;;;5113055;28;20030;-42
2023/03/03 12:44:20;;;;;;;24.40;14.45;;;8.40;99.90;;;;;;5113162;28;20027;-45
2023/03/03 12:46:54;;;;;;;26.52;14.15;;;8.40;99.90;;;;;;5094732;28;20039;-42
2023/03/03 12:49:21;;;;;;;22.35;13.85;;;8.40;99.90;;;;;;5112985;28;20469;-43
2023/03/03 12:52:20;;;;;;;22.58;14.48;;;8.40;99.90;;;;;;5113004;28;20463;-47
2023/03/03 12:54:54;;;;;;;21.35;13.00;;;8.40;99.90;;;;;;5112931;28;20101;-45
2023/03/03 12:57:39;;;;;;;21.33;13.18;;;8.40;99.90;;;;;;5112504;28;20552;-44
2023/03/03 13:00:16;;;;;;;20.60;12.45;;;8.40;99.90;;;;;;5112676;28;20083;-45
2023/03/03 13:03:10;;;;;;;18.80;11.73;;;8.40;99.90;;;;;;5112565;28;20023;-44
2023/03/03 13:05:53;;;;;;;21.05;13.05;;;8.40;99.90;;;;;;5112722;28;20030;-43